La Grande Rivière

Airport
ICAO code: 
CYGL
IATA Code: 
YGL
Summary
ICAO Region: 
NAM
Territory: 
Location: 
Radisson, Quebec,
Serving: 
Radisson
Elevation: 
639 ft
Coordinates: 
Aerial View: 
53° 37' 30.605" N, 77° 42' 13.086" W
Airport CFIT: 
Altimeter Temperature Error Correction
Airport RE: 
Landing on Contaminated Runways
Metar
Observation
CYGL 031000Z 25014KT 4SM -SN OVC004 M07/M08 A2959 RMK SF8 SLP039
Station
La Grande Riviere, Que
Date/Time
2021-12-03 10:00:00
Wind direction
250°
Wind speed
14 kts
Lowest cloud amount
overcast
Temperature
-7°C
Dew point
-8°C
Humidity
92%
Weather condition
light snow

Description

La Grande Rivière Airport, (IATA: YGL), is an airfield about 30 km from Radisson, Quebec, Canada.

Climatology

Subarctic climate (Köppen climate classification Dfc) - long, usually very cold winters, and short, cool to mild summers.

Runways

Designator Length Width Surface Rops
13/31 1981 46 ASP No/No
Airport map: 
Aerial View: 

SKYbrary Partners:

Safety knowledge contributed by: